Time;durP1;ratioP1;P1;durP2;ratioP2;P2;SDS_P1;SDS_P2;PMS_P1;PMS_P2;Temp;Humidity;BMP_temperature;BMP_pressure;BME280_temperature;BME280_humidity;BME280_pressure;Samples;Min_cycle;Max_cycle;Signal;HPM_P1;HPM_P2
2021/04/30 00:02:02;;;;;;;21.70;10.10;;;;;;;30.96;57.20;100998.69;5027143;28;70033;-32
2021/04/30 00:04:33;;;;;;;22.13;9.70;;;;;;;30.94;57.14;101000.75;5030380;28;65980;-32
2021/04/30 00:07:03;;;;;;;17.17;9.48;;;;;;;31.05;57.06;101008.19;5036766;28;70117;-31
2021/04/30 00:09:33;;;;;;;14.80;10.45;;;;;;;31.05;57.14;101005.47;5036489;28;65406;-33
2021/04/30 00:12:04;;;;;;;16.45;9.77;;;;;;;31.13;56.90;101010.63;5033348;28;69028;-32
2021/04/30 00:14:35;;;;;;;19.42;10.52;;;;;;;31.15;57.34;101007.72;5031120;28;66079;-32
2021/04/30 00:17:05;;;;;;;20.90;10.55;;;;;;;31.07;58.05;101016.94;5032402;28;69789;-33
2021/04/30 00:19:35;;;;;;;20.08;11.40;;;;;;;31.11;58.12;101012.72;5031736;28;65970;-33
2021/04/30 00:22:05;;;;;;;22.75;12.75;;;;;;;31.03;59.23;101004.03;5025602;28;69340;-33
2021/04/30 00:24:36;;;;;;;20.55;12.07;;;;;;;31.06;58.65;101027.97;5026076;28;65251;-33
2021/04/30 00:27:06;;;;;;;27.35;11.88;;;;;;;31.09;58.34;101031.09;5030062;28;69415;-33
2021/04/30 00:29:36;;;;;;;25.23;11.95;;;;;;;31.16;58.48;101021.03;5028757;28;66200;-32
2021/04/30 00:32:06;;;;;;;24.75;12.40;;;;;;;31.19;58.21;101024.38;5035323;28;69890;-33
2021/04/30 00:34:40;;;;;;;24.83;12.88;;;;;;;31.15;58.52;101024.81;5025772;28;65042;-34
2021/04/30 00:37:10;;;;;;;33.13;12.85;;;;;;;31.19;58.55;101027.06;5030150;28;70517;-32
2021/04/30 00:39:40;;;;;;;33.55;13.35;;;;;;;31.23;58.41;101025.56;5034704;28;65386;-32
2021/04/30 00:42:10;;;;;;;32.75;13.10;;;;;;;31.24;57.86;101033.50;5027901;28;70082;-33
2021/04/30 00:44:44;;;;;;;26.02;13.15;;;;;;;31.26;57.92;101041.41;5030869;28;65613;-32
2021/04/30 00:47:33;;;;;;;49.22;13.80;;;;;;;31.25;58.40;101051.41;5029967;28;67348;-33
2021/04/30 00:50:08;;;;;;;30.85;13.10;;;;;;;31.16;58.22;101028.34;5026945;28;65564;-32
2021/04/30 00:52:39;;;;;;;23.63;13.10;;;;;;;31.32;57.76;101045.97;5029751;28;69967;-32
2021/04/30 00:55:12;;;;;;;33.13;12.13;;;;;;;31.26;57.57;101035.97;5029060;28;66167;-32
2021/04/30 00:57:48;;;;;;;29.13;10.25;;;;;;;31.40;56.97;101053.88;5038054;28;69395;-32
2021/04/30 01:00:18;;;;;;;19.02;9.38;;;;;;;31.38;57.26;101058.66;5031192;28;67101;-32
2021/04/30 01:02:49;;;;;;;20.05;9.80;;;;;;;31.44;56.53;101065.09;5032284;28;69389;-32
2021/04/30 01:05:19;;;;;;;15.63;10.55;;;;;;;31.43;56.78;101064.25;5032945;28;66165;-33
2021/04/30 01:07:51;;;;;;;23.77;10.73;;;;;;;31.50;56.86;101078.59;5038587;28;70023;-33
2021/04/30 01:10:22;;;;;;;21.07;10.77;;;;;;;31.46;56.87;101074.66;5035124;28;66178;-33
2021/04/30 01:12:52;;;;;;;41.97;10.85;;;;;;;31.47;56.71;101060.03;5038363;28;70352;-33
2021/04/30 01:15:22;;;;;;;30.65;10.88;;;;;;;31.54;56.99;101071.69;5036024;28;66143;-33
2021/04/30 01:17:52;;;;;;;30.58;11.43;;;;;;;31.60;56.67;101072.69;5039137;28;70467;-33
2021/04/30 01:20:22;;;;;;;31.10;11.00;;;;;;;31.69;56.87;101063.22;5037665;28;65420;-31
2021/04/30 01:22:54;;;;;;;32.10;14.90;;;;;;;31.57;56.41;101054.97;5036359;28;69265;-31
2021/04/30 01:25:27;;;;;;;37.72;13.43;;;;;;;31.70;57.05;101074.88;5036977;28;66081;-30
2021/04/30 01:27:57;;;;;;;35.55;12.95;;;;;;;31.75;56.63;101064.22;5034204;28;69994;-31
2021/04/30 01:30:33;;;;;;;33.78;11.90;;;;;;;31.68;57.04;101044.44;5039630;28;66132;-32
2021/04/30 01:33:14;;;;;;;30.42;11.07;;;;;;;31.78;56.82;101067.28;5037032;28;68824;-31
2021/04/30 01:35:44;;;;;;;25.30;11.10;;;;;;;31.77;57.71;101064.81;5038929;28;67051;-31
2021/04/30 01:38:14;;;;;;;20.10;11.52;;;;;;;31.79;57.87;101060.00;5038913;28;68927;-31
2021/04/30 01:40:44;;;;;;;27.45;12.07;;;;;;;31.75;56.65;101061.50;5037872;28;66100;-32
2021/04/30 01:43:23;;;;;;;33.75;12.10;;;;;;;31.59;55.73;101074.56;5040800;28;69770;-32
2021/04/30 01:46:04;;;;;;;20.80;11.18;;;;;;;31.31;54.56;101045.09;5041797;28;65945;-32
2021/04/30 01:48:36;;;;;;;23.05;11.07;;;;;;;31.49;54.34;101082.34;5039949;28;70071;-32
2021/04/30 01:51:06;;;;;;;21.58;11.32;;;;;;;31.43;54.03;101077.81;5038954;28;66171;-31
2021/04/30 01:53:38;;;;;;;18.38;10.40;;;;;;;31.40;53.05;101072.84;5040936;28;69868;-32
2021/04/30 01:56:14;;;;;;;26.25;10.50;;;;;;;31.27;51.97;101071.00;5040201;28;65479;-32
2021/04/30 01:58:45;;;;;;;24.90;10.02;;;;;;;31.24;51.80;101078.75;5040688;28;70282;-32
2021/04/30 02:01:16;;;;;;;22.60;10.15;;;;;;;31.15;50.75;101070.06;5041179;28;65120;-32
2021/04/30 02:03:48;;;;;;;18.30;9.60;;;;;;;31.11;50.38;101083.19;5039609;28;69145;-32
2021/04/30 02:06:18;;;;;;;11.30;9.52;;;;;;;31.06;50.25;101087.59;5040995;28;65982;-32
2021/04/30 02:08:50;;;;;;;11.85;9.43;;;;;;;31.00;49.27;101069.50;5039728;28;70042;-32
2021/04/30 02:11:21;;;;;;;35.20;9.95;;;;;;;31.03;48.83;101086.13;5039384;28;66305;-31
2021/04/30 02:13:52;;;;;;;32.80;10.57;;;;;;;31.03;49.27;101093.44;5036745;28;70208;-32
2021/04/30 02:16:22;;;;;;;18.42;10.63;;;;;;;31.00;49.17;101085.75;5036920;28;66134;-31
2021/04/30 02:18:53;;;;;;;14.82;10.23;;;;;;;30.97;49.24;101081.59;5038760;28;69816;-31
2021/04/30 02:21:23;;;;;;;12.55;10.27;;;;;;;30.95;48.96;101078.25;5039508;28;66258;-32
2021/04/30 02:23:55;;;;;;;12.38;10.85;;;;;;;31.01;51.21;101085.56;5038561;28;69812;-33
2021/04/30 02:26:27;;;;;;;13.23;10.45;;;;;;;31.07;51.76;101090.09;5039444;28;65308;-33
2021/04/30 02:28:58;;;;;;;16.58;11.68;;;;;;;31.14;52.80;101081.91;5037506;28;69959;-33
2021/04/30 02:31:28;;;;;;;31.65;12.23;;;;;;;31.23;53.40;101077.06;5037282;28;66305;-30
2021/04/30 02:33:59;;;;;;;24.23;10.77;;;;;;;31.40;53.84;101072.84;5035662;28;69906;-29
2021/04/30 02:36:30;;;;;;;31.00;11.85;;;;;;;31.57;54.47;101092.94;5038026;28;65301;-31
2021/04/30 02:39:00;;;;;;;24.00;12.27;;;;;;;31.68;54.57;101077.84;5035604;28;69349;-30
2021/04/30 02:41:31;;;;;;;28.20;11.77;;;;;;;31.78;54.46;101078.16;5038362;28;65486;-30
2021/04/30 02:44:02;;;;;;;25.45;13.38;;;;;;;31.90;54.72;101081.00;5039461;28;70107;-30
2021/04/30 02:46:33;;;;;;;30.83;14.80;;;;;;;32.01;54.23;101080.28;5036045;28;65400;-29
2021/04/30 02:49:05;;;;;;;29.57;13.90;;;;;;;32.09;54.19;101072.91;5039013;28;69943;-30
2021/04/30 02:51:36;;;;;;;31.50;13.65;;;;;;;32.16;53.55;101073.66;5036899;28;65927;-30
2021/04/30 02:54:07;;;;;;;27.17;12.43;;;;;;;32.19;53.65;101074.03;5037706;28;70709;-30
2021/04/30 02:56:38;;;;;;;34.08;13.98;;;;;;;32.27;53.68;101071.03;5037832;28;65986;-31
2021/04/30 02:59:09;;;;;;;27.65;13.63;;;;;;;32.33;53.55;101068.47;5037577;28;68889;-32
2021/04/30 03:01:39;;;;;;;22.42;13.13;;;;;;;32.32;53.78;101062.22;5037678;28;66099;-31
2021/04/30 03:04:10;;;;;;;24.08;12.75;;;;;;;32.43;53.66;101069.63;5037114;28;70469;-30
2021/04/30 03:06:41;;;;;;;25.55;11.82;;;;;;;32.43;53.93;101066.91;5032524;28;67235;-31
2021/04/30 03:09:11;;;;;;;14.18;11.48;;;;;;;32.50;53.98;101072.28;5028948;28;70463;-32
2021/04/30 03:11:43;;;;;;;23.58;11.85;;;;;;;32.52;53.90;101059.31;5039353;28;66294;-29
2021/04/30 03:14:14;;;;;;;21.88;11.30;;;;;;;32.55;53.96;101063.44;5038364;28;68329;-30
2021/04/30 03:16:45;;;;;;;19.58;10.80;;;;;;;32.60;54.12;101069.03;5039422;28;66048;-30
2021/04/30 03:19:16;;;;;;;11.65;10.60;;;;;;;32.60;54.07;101058.19;5039041;28;70186;-30
2021/04/30 03:21:47;;;;;;;26.53;11.20;;;;;;;32.65;53.77;101061.00;5038322;28;65324;-30
2021/04/30 03:24:19;;;;;;;15.20;11.27;;;;;;;32.67;53.84;101064.34;5039309;28;68978;-30
2021/04/30 03:26:50;;;;;;;16.10;10.82;;;;;;;32.71;54.14;101057.41;5039890;28;65945;-30
2021/04/30 03:29:22;;;;;;;16.40;11.13;;;;;;;32.73;54.07;101049.84;5015770;28;69977;-30
2021/04/30 03:31:52;;;;;;;16.48;11.63;;;;;;;32.74;54.03;101054.22;5038927;28;66048;-31
2021/04/30 03:34:38;;;;;;;16.70;11.05;;;;;;;32.81;53.53;101052.22;5036356;28;69838;-31
2021/04/30 03:37:09;;;;;;;17.95;11.77;;;;;;;32.85;53.90;101053.44;5037908;28;66268;-29
2021/04/30 03:39:41;;;;;;;11.20;10.05;;;;;;;32.88;53.65;101054.88;5035970;28;69164;-31
2021/04/30 03:42:18;;;;;;;18.52;10.88;;;;;;;32.81;53.64;101030.50;5028721;28;66258;-30
2021/04/30 03:44:49;;;;;;;12.07;10.57;;;;;;;32.94;53.43;101049.34;5036705;28;70055;-31
2021/04/30 03:47:19;;;;;;;16.95;10.52;;;;;;;32.93;53.51;101042.25;5035895;28;65218;-31
2021/04/30 03:50:01;;;;;;;12.75;10.15;;;;;;;32.94;53.24;101049.34;5035329;28;69174;-31
2021/04/30 03:52:35;;;;;;;18.90;10.65;;;;;;;32.95;53.42;101039.28;5037333;28;66286;-31
2021/04/30 03:55:06;;;;;;;17.75;10.15;;;;;;;32.97;53.52;101033.66;5036917;28;69162;-30
2021/04/30 03:57:37;;;;;;;16.27;11.00;;;;;;;33.02;53.10;101018.34;5037546;28;66329;-29
2021/04/30 04:00:08;;;;;;;16.55;9.77;;;;;;;33.06;52.97;101021.41;5035713;28;69599;-30
2021/04/30 04:02:43;;;;;;;11.63;10.40;;;;;;;33.09;53.24;101023.66;5036150;28;65507;-30
2021/04/30 04:05:14;;;;;;;15.57;9.77;;;;;;;33.08;52.89;101028.28;5037863;28;69951;-30
2021/04/30 04:07:44;;;;;;;10.82;9.82;;;;;;;33.14;52.96;101026.50;5032298;28;66105;-30
2021/04/30 04:10:15;;;;;;;15.38;10.27;;;;;;;33.15;52.44;101029.00;5037321;28;69909;-30
2021/04/30 04:12:45;;;;;;;11.02;10.05;;;;;;;33.17;52.96;101017.91;5027353;28;65874;-31
2021/04/30 04:15:16;;;;;;;12.18;10.32;;;;;;;33.20;52.77;101035.63;5036816;28;69826;-30
2021/04/30 04:17:47;;;;;;;11.70;10.57;;;;;;;33.24;52.61;101026.78;5039006;28;66075;-31
2021/04/30 04:20:18;;;;;;;14.80;11.68;;;;;;;33.25;52.56;101022.16;5037099;28;70672;-31
2021/04/30 04:22:47;;;;;;;13.15;10.70;;;;;;;33.30;52.67;101020.41;5037687;28;65691;-31
2021/04/30 04:25:17;;;;;;;19.27;11.27;;;;;;;33.25;52.09;101023.00;5026295;28;70042;-31
2021/04/30 04:27:47;;;;;;;15.57;9.95;;;;;;;33.22;51.13;101012.59;5032232;28;65945;-30
2021/04/30 04:30:17;;;;;;;12.63;10.05;;;;;;;33.00;50.78;101006.84;5034984;28;69252;-31
2021/04/30 04:32:48;;;;;;;13.38;9.15;;;;;;;33.03;49.55;101013.72;5031249;28;65939;-31
2021/04/30 04:35:18;;;;;;;21.65;8.82;;;;;;;33.00;49.46;101011.47;5034085;28;70241;-31
2021/04/30 04:37:49;;;;;;;14.60;9.68;;;;;;;32.92;48.59;101001.72;5027516;28;65240;-31
2021/04/30 04:40:19;;;;;;;12.02;8.38;;;;;;;32.88;48.71;100995.09;5034398;28;69230;-30
2021/04/30 04:42:50;;;;;;;10.27;9.15;;;;;;;32.82;48.69;101002.28;5033927;28;66386;-29
2021/04/30 04:45:21;;;;;;;9.80;8.77;;;;;;;32.80;47.65;100998.97;5034579;28;70951;-31
2021/04/30 04:47:51;;;;;;;9.23;8.43;;;;;;;32.84;47.22;100989.28;5033140;28;65826;-30
2021/04/30 04:50:22;;;;;;;8.85;7.97;;;;;;;32.79;46.72;100991.91;5029211;28;70317;-31
2021/04/30 04:52:53;;;;;;;9.00;8.27;;;;;;;32.70;46.94;100960.66;5027092;28;66691;-30
2021/04/30 04:55:27;;;;;;;11.30;7.68;;;;;;;32.78;46.94;100979.34;5026910;28;69066;-32
2021/04/30 04:57:58;;;;;;;10.10;8.80;;;;;;;32.78;46.55;100971.19;5018855;28;66753;-31
2021/04/30 05:00:32;;;;;;;10.52;7.75;;;;;;;32.77;46.45;100971.44;5032922;28;70152;-30
2021/04/30 05:03:03;;;;;;;12.95;8.13;;;;;;;32.77;46.23;100964.13;5029005;28;65344;-31
2021/04/30 05:05:34;;;;;;;18.02;8.35;;;;;;;32.81;45.65;100961.75;5029934;28;69215;-30
2021/04/30 05:08:06;;;;;;;18.65;8.30;;;;;;;32.76;45.72;100957.00;5029684;28;66104;-33
2021/04/30 05:10:39;;;;;;;;;;;;;;;32.70;45.93;100956.06;5031917;28;69517;-30
2021/04/30 05:13:09;;;;;;;13.55;8.55;;;;;;;32.81;46.43;100962.59;5029498;28;67708;-32
2021/04/30 05:15:53;;;;;;;33.97;8.93;;;;;;;32.78;46.60;100952.19;5034310;28;70087;-31
2021/04/30 05:18:26;;;;;;;16.52;8.45;;;;;;;32.72;46.75;100947.69;5033588;28;65407;-30
2021/04/30 05:21:00;;;;;;;9.73;8.70;;;;;;;32.65;46.59;100936.06;5029874;28;69824;-30
2021/04/30 05:23:31;;;;;;;17.35;8.25;;;;;;;32.59;46.57;100939.72;5029398;28;65999;-30
2021/04/30 05:26:03;;;;;;;12.75;7.93;;;;;;;32.56;46.17;100932.03;5025484;28;70313;-31
2021/04/30 05:28:34;;;;;;;15.50;8.05;;;;;;;32.52;46.01;100920.00;5030627;28;66040;-32
2021/04/30 05:31:07;;;;;;;10.05;8.57;;;;;;;32.47;45.69;100916.06;5017696;28;70264;-31
2021/04/30 05:33:38;;;;;;;16.67;9.00;;;;;;;32.51;46.05;100918.31;5033859;28;66124;-31
2021/04/30 05:36:13;;;;;;;25.15;9.02;;;;;;;32.51;44.98;100902.84;5027952;28;69938;-32
2021/04/30 05:38:43;;;;;;;24.13;7.90;;;;;;;32.51;45.34;100902.84;5028287;28;65422;-31
2021/04/30 05:41:18;;;;;;;22.05;7.93;;;;;;;32.51;45.23;100891.16;5030353;28;69106;-32
2021/04/30 05:43:49;;;;;;;37.72;8.65;;;;;;;32.45;45.40;100887.47;5028987;28;65177;-30
2021/04/30 05:46:20;;;;;;;17.63;7.70;;;;;;;32.47;45.23;100880.78;5034987;28;69143;-31
2021/04/30 05:48:52;;;;;;;30.05;8.68;;;;;;;32.46;45.56;100884.56;5034554;28;65060;-30
2021/04/30 05:51:22;;;;;;;25.15;8.52;;;;;;;32.47;44.84;100890.81;5035691;28;70848;-31
2021/04/30 05:53:54;;;;;;;17.40;6.45;;;;;;;32.39;45.68;100878.34;5032267;28;68108;-30
2021/04/30 05:56:32;;;;;;;13.30;5.18;;;;;;;32.35;45.05;100874.44;5032374;28;69323;-30
2021/04/30 05:59:05;;;;;;;15.82;5.00;;;;;;;32.36;45.04;100869.84;5032401;28;65302;-30
2021/04/30 06:01:38;;;;;;;8.13;3.85;;;;;;;32.34;44.68;100870.06;5029091;28;69252;-30
2021/04/30 06:04:09;;;;;;;9.03;3.93;;;;;;;32.31;43.89;100858.84;5024318;28;65556;-30
2021/04/30 06:06:49;;;;;;;11.73;3.35;;;;;;;32.33;43.54;100852.13;5038762;28;69883;-31
2021/04/30 06:09:22;;;;;;;3.00;2.80;;;;;;;32.34;43.75;100847.53;5041469;28;65436;-31
2021/04/30 06:11:54;;;;;;;6.88;3.03;;;;;;;32.32;43.32;100847.78;5036350;28;69887;-30
2021/04/30 06:14:30;;;;;;;2.22;2.08;;;;;;;32.33;42.49;100841.28;5032299;28;65434;-30
2021/04/30 06:17:01;;;;;;;1.98;1.88;;;;;;;32.31;42.36;100837.13;5034764;28;69637;-30
2021/04/30 06:19:32;;;;;;;2.42;2.20;;;;;;;32.33;43.00;100840.44;5026371;28;66848;-31
2021/04/30 06:22:03;;;;;;;2.00;1.90;;;;;;;32.43;42.37;100829.84;5027634;28;69939;-31
2021/04/30 06:24:36;;;;;;;7.30;1.75;;;;;;;32.57;42.42;100827.78;5031661;28;65544;-31
2021/04/30 06:27:07;;;;;;;2.33;1.55;;;;;;;32.67;41.64;100823.44;5031944;28;69927;-31
2021/04/30 06:29:38;;;;;;;3.70;1.73;;;;;;;32.74;41.61;100815.19;5027338;28;65919;-31
2021/04/30 06:32:09;;;;;;;;;;;;;;;32.76;41.20;100802.19;5033695;28;69182;-31
2021/04/30 06:34:48;;;;;;;2.85;1.50;;;;;;;32.84;40.76;100793.69;5026964;28;65602;-31
2021/04/30 06:37:22;;;;;;;4.45;1.40;;;;;;;32.89;40.72;100796.53;5042241;28;68754;-31
2021/04/30 06:39:54;;;;;;;1.27;1.10;;;;;;;32.94;40.71;100780.34;5029014;28;66863;-31
2021/04/30 06:42:26;;;;;;;1.10;1.00;;;;;;;32.91;40.08;100760.97;5048788;28;69674;-31
2021/04/30 06:44:57;;;;;;;1.90;1.10;;;;;;;32.96;40.37;100765.69;5042155;28;65408;-31
2021/04/30 06:47:28;;;;;;;1.10;1.00;;;;;;;33.00;40.29;100761.47;5042911;28;70397;-31
2021/04/30 06:50:00;;;;;;;3.03;1.20;;;;;;;33.04;39.98;100760.78;5046258;28;63697;-31
2021/04/30 06:52:32;;;;;;;1.05;0.93;;;;;;;33.11;39.42;100750.56;5043111;28;69893;-31
2021/04/30 06:55:04;;;;;;;1.17;1.08;;;;;;;33.11;39.64;100752.47;5042910;28;66031;-31
2021/04/30 06:57:42;;;;;;;2.28;0.90;;;;;;;33.21;39.39;100741.84;5045552;28;69763;-31
2021/04/30 07:00:16;;;;;;;1.30;1.20;;;;;;;33.21;39.15;100740.97;5042253;28;65358;-30
2021/04/30 07:02:47;;;;;;;3.75;1.30;;;;;;;33.27;39.32;100754.47;5042158;28;70184;-30
2021/04/30 07:05:18;;;;;;;1.00;0.85;;;;;;;33.26;38.97;100731.03;5046949;28;66798;-30
2021/04/30 07:07:48;;;;;;;3.17;0.70;;;;;;;33.33;38.93;100752.69;5044705;28;70126;-30
2021/04/30 07:10:20;;;;;;;1.73;0.90;;;;;;;33.35;39.17;100751.38;5039031;28;65544;-31
2021/04/30 07:12:51;;;;;;;3.45;1.10;;;;;;;33.40;38.19;100747.09;5045140;28;70207;-31
2021/04/30 07:15:22;;;;;;;1.05;0.85;;;;;;;33.37;38.73;100748.41;5040175;28;65978;-31
2021/04/30 07:17:53;;;;;;;0.93;0.82;;;;;;;33.42;38.85;100734.09;5044705;28;71966;-30
2021/04/30 07:20:23;;;;;;;2.45;1.08;;;;;;;33.45;38.47;100739.03;5040149;28;66475;-31
2021/04/30 07:22:58;;;;;;;7.70;1.13;;;;;;;33.49;38.73;100735.59;5042760;28;70402;-31
2021/04/30 07:25:31;;;;;;;5.22;1.33;;;;;;;33.48;38.47;100733.94;5033965;28;66066;-31
2021/04/30 07:28:02;;;;;;;1.30;0.90;;;;;;;33.54;38.54;100726.72;5050250;27;69552;-31
2021/04/30 07:30:33;;;;;;;5.27;1.30;;;;;;;33.55;38.26;100728.41;5045536;28;65931;-32
2021/04/30 07:33:04;;;;;;;7.57;1.20;;;;;;;33.58;38.29;100711.59;5039023;28;69998;-32
2021/04/30 07:35:42;;;;;;;5.13;1.15;;;;;;;33.58;38.46;100717.03;5037616;28;65446;-30
2021/04/30 07:38:13;;;;;;;3.53;1.00;;;;;;;33.59;38.43;100714.06;5041615;28;69460;-31
2021/04/30 07:40:44;;;;;;;2.15;1.10;;;;;;;33.68;38.54;100709.06;5038848;28;65910;-31
2021/04/30 07:43:16;;;;;;;3.10;1.40;;;;;;;33.70;38.76;100712.34;5038969;28;69188;-31
2021/04/30 07:45:49;;;;;;;2.50;1.20;;;;;;;33.69;38.67;100688.97;5039404;28;65394;-31
2021/04/30 07:48:20;;;;;;;3.22;1.20;;;;;;;33.74;38.83;100693.66;5035828;28;70457;-31
2021/04/30 07:50:52;;;;;;;1.83;1.33;;;;;;;33.77;39.10;100694.00;5039695;28;66011;-31
2021/04/30 07:53:25;;;;;;;7.57;1.60;;;;;;;33.77;39.38;100688.56;5038778;28;68982;-31
2021/04/30 07:55:56;;;;;;;2.00;1.67;;;;;;;33.77;39.47;100691.28;5038502;28;66009;-31
2021/04/30 07:58:28;;;;;;;;;;;;;;;33.78;39.21;100695.66;5041633;28;69213;-31
2021/04/30 08:00:59;;;;;;;1.88;1.15;;;;;;;33.91;39.10;100690.97;5037788;28;65074;-31
2021/04/30 08:03:29;;;;;;;1.40;1.30;;;;;;;33.88;39.06;100681.41;5039914;28;70315;-31
2021/04/30 08:05:59;;;;;;;7.40;1.30;;;;;;;33.89;39.06;100676.78;5037761;28;66031;-31
2021/04/30 08:08:30;;;;;;;2.88;1.10;;;;;;;33.86;38.64;100663.69;5040156;28;70386;-31
2021/04/30 08:11:01;;;;;;;1.40;1.10;;;;;;;33.83;38.74;100669.63;5042380;28;65381;-32
2021/04/30 08:13:33;;;;;;;6.03;1.30;;;;;;;33.85;38.71;100667.44;5041710;28;70175;-33
2021/04/30 08:16:04;;;;;;;6.65;1.65;;;;;;;33.87;38.75;100665.31;5038026;28;65359;-32
2021/04/30 08:18:35;;;;;;;5.93;1.40;;;;;;;33.87;38.94;100665.31;5040140;28;69235;-32
2021/04/30 08:21:07;;;;;;;4.28;1.15;;;;;;;33.89;38.53;100664.00;5037206;28;67028;-32
2021/04/30 08:23:38;;;;;;;;;;;;;;;33.90;38.46;100670.25;5034961;28;70620;-32
2021/04/30 08:26:11;;;;;;;2.15;0.95;;;;;;;33.93;38.30;100653.44;5035161;28;66170;-32
2021/04/30 08:28:43;;;;;;;2.55;1.00;;;;;;;33.92;38.65;100668.13;5037586;28;69139;-32
2021/04/30 08:31:14;;;;;;;4.93;1.30;;;;;;;33.98;39.12;100661.69;5031109;28;66022;-30
2021/04/30 08:33:44;;;;;;;1.10;1.00;;;;;;;34.08;39.64;100656.47;5033744;28;70046;-31
2021/04/30 08:36:15;;;;;;;1.23;0.93;;;;;;;34.17;39.91;100660.41;5035698;28;66297;-32
2021/04/30 08:38:46;;;;;;;9.75;2.97;;;;;;;34.31;42.85;100655.44;5037251;28;69424;-33
2021/04/30 08:41:24;;;;;;;12.90;6.10;;;;;;;34.36;45.38;100636.47;5042329;28;66262;-32
2021/04/30 08:43:54;;;;;;;27.55;7.20;;;;;;;34.66;45.19;100663.34;5044772;28;69404;-32
2021/04/30 08:46:29;;;;;;;28.40;6.60;;;;;;;34.79;45.85;100661.31;5036285;28;65381;-31
2021/04/30 08:49:05;;;;;;;27.30;6.82;;;;;;;34.88;47.15;100670.69;5045029;28;70105;-32
2021/04/30 08:51:38;;;;;;;33.08;6.20;;;;;;;34.95;46.08;100665.91;5046825;28;66268;-32
2021/04/30 08:54:09;;;;;;;34.13;7.22;;;;;;;35.02;46.48;100665.69;5038492;28;69265;-32
2021/04/30 08:56:46;;;;;;;26.30;8.10;;;;;;;35.06;47.45;100673.16;5038548;28;65433;-30
2021/04/30 08:59:20;;;;;;;48.40;7.32;;;;;;;35.10;46.62;100674.31;5036679;28;69412;-31
2021/04/30 09:01:51;;;;;;;41.15;6.55;;;;;;;35.20;46.52;100659.13;5032434;28;66157;-32
2021/04/30 09:04:23;;;;;;;30.63;6.15;;;;;;;35.23;46.21;100666.81;5034084;28;69274;-32
2021/04/30 09:06:54;;;;;;;;;;;;;;;35.22;46.28;100660.53;5036288;28;67063;-31
2021/04/30 09:09:25;;;;;;;26.65;7.32;;;;;;;35.28;46.20;100664.16;5034457;28;68878;-31
2021/04/30 09:11:57;;;;;;;39.30;7.78;;;;;;;35.35;46.28;100668.31;5038090;28;66099;-33
2021/04/30 09:14:34;;;;;;;28.50;7.13;;;;;;;35.30;46.71;100667.41;5047754;28;69884;-31
2021/04/30 09:17:15;;;;;;;36.15;7.82;;;;;;;35.24;47.00;100641.19;5032849;28;65747;-31
2021/04/30 09:19:56;;;;;;;27.40;7.82;;;;;;;35.43;46.72;100667.03;5035080;28;70571;-31
2021/04/30 09:22:38;;;;;;;10.77;7.25;;;;;;;35.43;47.82;100667.03;5019906;28;65586;-31
2021/04/30 09:25:10;;;;;;;28.00;9.65;;;;;;;35.46;47.15;100666.50;5037251;28;68920;-32
2021/04/30 09:27:48;;;;;;;32.70;7.10;;;;;;;35.29;47.00;100672.06;5031300;28;65385;-32
2021/04/30 09:30:29;;;;;;;30.88;5.88;;;;;;;35.30;47.42;100667.41;5039428;28;69819;-32
2021/04/30 09:33:14;;;;;;;22.43;6.77;;;;;;;35.26;47.30;100677.19;5035676;28;65841;-31
2021/04/30 09:35:46;;;;;;;34.95;6.22;;;;;;;35.33;47.56;100678.66;5037271;28;69776;-31
2021/04/30 09:38:18;;;;;;;37.63;6.85;;;;;;;35.35;47.48;100686.56;5037136;28;65066;-31
2021/04/30 09:40:52;;;;;;;36.10;5.90;;;;;;;35.29;46.98;100682.97;5043811;28;69964;-31
2021/04/30 09:43:22;;;;;;;50.08;6.10;;;;;;;35.25;46.82;100689.19;5048884;28;66443;-31
2021/04/30 09:45:52;;;;;;;36.95;5.57;;;;;;;35.27;46.48;100692.47;5042627;28;69339;-31
2021/04/30 09:48:22;;;;;;;36.05;5.90;;;;;;;35.31;46.42;100685.44;5033535;28;65594;-30
2021/04/30 09:50:53;;;;;;;24.77;5.90;;;;;;;35.31;46.93;100682.72;5046201;28;70132;-30
2021/04/30 09:53:28;;;;;;;15.95;5.45;;;;;;;35.28;46.61;100685.97;5036432;28;66538;-31
2021/04/30 09:56:03;;;;;;;24.73;5.72;;;;;;;35.22;46.72;100687.81;5033913;28;70196;-30
2021/04/30 09:58:44;;;;;;;27.52;5.13;;;;;;;35.14;47.25;100691.78;5035802;28;66296;-30
2021/04/30 10:01:24;;;;;;;43.83;6.30;;;;;;;35.18;46.69;100697.56;5037043;28;69985;-30
2021/04/30 10:03:56;;;;;;;53.05;6.47;;;;;;;35.27;46.65;100700.66;5036585;28;66460;-31
2021/04/30 10:06:27;;;;;;;191.90;11.63;;;;;;;35.35;46.20;100709.22;5039630;28;70688;-30
2021/04/30 10:09:06;;;;;;;71.75;10.80;;;;;;;35.47;45.84;100700.91;5036820;28;65412;-31
2021/04/30 10:11:37;;;;;;;73.63;8.88;;;;;;;35.61;45.89;100723.19;5040463;28;70566;-30
2021/04/30 10:14:08;;;;;;;35.33;6.78;;;;;;;35.70;45.20;100731.72;5036476;28;66392;-31
2021/04/30 10:16:41;;;;;;;33.75;7.05;;;;;;;35.69;45.61;100724.59;5036011;28;69649;-31
2021/04/30 10:19:13;;;;;;;32.45;5.55;;;;;;;35.86;45.45;100728.06;5037853;28;66376;-30
2021/04/30 10:21:45;;;;;;;20.52;5.53;;;;;;;35.73;45.31;100701.19;5038736;28;69069;-31
2021/04/30 10:24:18;;;;;;;20.63;5.50;;;;;;;35.93;44.94;100731.41;5034425;28;65125;-31
2021/04/30 10:26:58;;;;;;;24.57;4.53;;;;;;;35.91;45.08;100725.41;5033842;28;69953;-31
2021/04/30 10:29:32;;;;;;;25.08;5.22;;;;;;;36.00;45.71;100726.56;5035447;28;66303;-31
2021/04/30 10:32:03;;;;;;;46.80;8.35;;;;;;;36.02;45.85;100729.03;5036620;28;70252;-31
2021/04/30 10:34:44;;;;;;;54.07;9.60;;;;;;;36.02;45.76;100729.88;5048087;28;66491;-31
2021/04/30 10:37:23;;;;;;;40.80;7.60;;;;;;;35.84;45.22;100689.28;5045354;28;69358;-31
2021/04/30 10:40:01;;;;;;;41.40;7.35;;;;;;;35.85;45.08;100696.38;5047343;28;66193;-31
2021/04/30 10:42:45;;;;;;;44.85;6.70;;;;;;;35.98;45.66;100717.81;5033480;28;70092;-31
2021/04/30 10:45:18;;;;;;;44.92;22.85;;;;;;;35.93;45.62;100709.56;5036244;28;65242;-30
2021/04/30 10:48:09;;;;;;;47.42;23.45;;;;;;;35.82;45.73;100707.81;5033429;28;70555;-31
2021/04/30 10:50:39;;;;;;;32.28;16.55;;;;;;;35.97;45.44;100734.47;5045688;28;65465;-30
2021/04/30 10:53:35;;;;;;;14.90;9.35;;;;;;;35.68;46.57;100733.88;5047691;28;70213;-31
2021/04/30 10:56:34;;;;;;;19.00;8.63;;;;;;;35.28;47.63;100729.59;5039301;28;66327;-30
2021/04/30 10:59:08;;;;;;;23.58;7.40;;;;;;;35.07;48.42;100723.84;5033699;28;69556;-32
2021/04/30 11:01:51;;;;;;;19.45;6.55;;;;;;;34.79;48.71;100715.81;5036588;28;65802;-30
2021/04/30 11:04:29;;;;;;;19.75;6.40;;;;;;;34.89;48.82;100752.22;5030825;28;70332;-31
2021/04/30 11:07:06;;;;;;;18.30;6.25;;;;;;;34.86;49.21;100754.63;5026700;28;65829;-32
2021/04/30 11:09:39;;;;;;;27.40;6.60;;;;;;;34.69;49.36;100738.31;5029573;28;70081;-31
2021/04/30 11:12:18;;;;;;;;;;;;;;;34.82;49.91;100775.25;5040527;28;66120;-31
2021/04/30 11:15:17;;;;;;;27.17;6.38;;;;;;;34.77;50.17;100778.75;5050719;28;69775;-31
2021/04/30 11:17:58;;;;;;;26.38;7.05;;;;;;;34.74;50.30;100781.13;5046711;28;66308;-31
2021/04/30 11:20:34;;;;;;;29.23;7.35;;;;;;;34.59;50.16;100768.94;5028062;28;70184;-31
2021/04/30 11:23:30;;;;;;;33.80;6.88;;;;;;;34.66;50.79;100805.00;5036054;28;66205;-32
2021/04/30 11:26:04;;;;;;;36.55;7.15;;;;;;;34.63;50.57;100788.31;5035779;28;70007;-31
2021/04/30 11:28:34;;;;;;;22.50;6.15;;;;;;;34.64;51.18;100798.16;5048153;28;66088;-31
2021/04/30 11:31:08;;;;;;;27.15;6.93;;;;;;;34.66;50.87;100796.84;5044816;28;70258;-31
2021/04/30 11:33:42;;;;;;;43.83;8.10;;;;;;;34.48;50.91;100776.06;5033915;28;66061;-31
2021/04/30 11:36:14;;;;;;;35.22;9.40;;;;;;;34.57;51.36;100794.75;5027620;28;69159;-32
2021/04/30 11:38:48;;;;;;;27.63;8.38;;;;;;;34.49;51.24;100798.69;5031708;28;65178;-31
2021/04/30 11:41:19;;;;;;;24.50;7.60;;;;;;;34.49;51.06;100809.59;5032522;28;69523;-30
2021/04/30 11:43:50;;;;;;;;;;;;;;;34.40;51.71;100805.63;5039458;28;66054;-30